• Join FlightAware (Why Join?)
  • Login
  • US Flag GB Flag 
08:04 EDT


 

Airport Tracker/Info


-or-


 

Live Flight TrackerFlight Track Log ✈ N40BZ ✈ 27-Jul-2013 ✈ CND4 - KBUF

Flight Track Log - Related Links

Times and Time Zones

All times are in EDT time to prevent confusion due to time zone crossing. See the N40BZ flight status page for this flight to view local times or setup timezone preferences in your user account.

Time Position Orientation Groundspeed Altitude Reporting Facility
EDT Latitude Longitude Course Direction KTS MPH feet Rate Location/Type
16:09 44.7667 -78.6000 180° South 170 196 6,900  Level Toronto Center
16:10 44.7167 -78.6000 180° South 170 196 6,900  Level Toronto Center
16:11 44.6833 -78.6000 180° South 160 184 7,000  Climbing Toronto Center
16:12 44.6333 -78.6000 180° South 160 184 7,000  Level Toronto Center
16:14 44.5500 -78.6000 180° South 160 184 7,000  Level Toronto Center
16:15 44.5000 -78.6000 180° South 160 184 7,000  Level Toronto Center
16:16 44.4500 -78.6000 180° South 160 184 7,000  Level Toronto Center
16:17 44.4167 -78.6000 180° South 160 184 7,000  Level Toronto Center
16:18 44.3667 -78.6000 180° South 150 173 7,000  Level Toronto Center
16:19 44.3333 -78.6333 216° Southwest 160 184 7,000  Level Toronto Center
16:20 44.2833 -78.6333 180° South 160 184 7,000  Level Toronto Center
16:21 44.2500 -78.6333 180° South 150 173 7,000  Level Toronto Center
16:22 44.2000 -78.6333 180° South 150 173 7,000  Level Toronto Center
16:23 44.1500 -78.6333 180° South 150 173 7,000  Level Toronto Center
16:24 44.1167 -78.6333 180° South 150 173 7,000  Level Toronto Center
16:25 44.0667 -78.6500 193° South 160 184 7,000  Level Toronto Center
16:26 44.0333 -78.6667 200° South 160 184 7,000  Level Toronto Center
16:27 43.9833 -78.6833 193° South 160 184 7,000  Level Toronto Center
16:28 43.9500 -78.7000 200° South 160 184 7,000  Level Toronto Center
16:29 43.9000 -78.7333 206° Southwest 160 184 7,000  Level Toronto Center
16:30 43.8667 -78.7500 200° South 160 184 7,000  Level Toronto Center
16:31 43.8167 -78.7500 180° South 160 184 7,000  Level Toronto Center
16:32 43.7833 -78.7833 216° Southwest 160 184 7,000  Level Toronto Center
16:33 43.7333 -78.8000 194° South 160 184 7,000  Level Toronto Center
16:34 43.7000 -78.8000 180° South 150 173 7,000  Level Toronto Center
16:35 43.6500 -78.8000 180° South 150 173 7,000  Level Toronto Center
16:36 43.6167 -78.8000 180° South 150 173 7,000  Level Toronto Center
16:37 43.5667 -78.8000 180° South 150 173 7,000  Level Toronto Center
16:38 43.5167 -78.7833 166° South 150 173 7,000  Level Toronto Center
16:39 43.4833 -78.7833 180° South 150 173 7,000  Level Toronto Center
16:40 43.4500 -78.7833 180° South 150 173 7,000  Level Toronto Center
16:41 43.4000 -78.7833 180° South 150 173 7,100  Climbing Toronto Center
16:42 43.3667 -78.7667 160° South 150 173 7,100  Level Toronto Center
16:43 43.3167 -78.7667 180° South 150 173 7,100  Level Toronto Center
16:44 43.2833 -78.7667 180° South 150 173 7,100 -540 Level Toronto Center
16:45 43.2333 -78.7667 180° South 160 184 6,100 -600 Descending Toronto Center
16:46 43.2000 -78.7833 200° South 160 184 5,900 -540 Descending Toronto Center
16:47 43.1500 -78.7833 180° South 160 184 5,100 -600 Descending Toronto Center
16:48 43.1167 -78.8167 216° Southwest 160 184 4,800 -600 Descending Toronto Center
16:49 43.0667 -78.8333 194° South 170 196 4,000 -600 Descending Toronto Center
16:50 43.0333 -78.8500 200° South 160 184 3,700 -480 Descending Toronto Center
16:52 42.9667 -78.8333 170° South 180 207 2,600 -780 Descending Toronto Center
16:53 42.9667 -78.7667 90° East 170 196 1,500 -780 Descending Toronto Center
16:54 42.9500 -78.7333 124° Southeast 93 107 800 -540 Descending Buffalo TRACON